createdAt,value
2022-08-16T00:00:20.378Z,21.49
2022-08-16T00:02:50.059Z,21.46
2022-08-16T00:05:19.574Z,21.44
2022-08-16T00:07:47.183Z,21.42
2022-08-16T00:10:20.084Z,21.40
2022-08-16T00:12:49.905Z,21.39
2022-08-16T00:15:21.541Z,21.38
2022-08-16T00:17:56.959Z,21.34
2022-08-16T00:20:24.197Z,21.31
2022-08-16T00:22:51.923Z,21.29
2022-08-16T00:25:20.735Z,21.29
2022-08-16T00:28:08.322Z,21.28
2022-08-16T00:30:35.019Z,21.26
2022-08-16T00:33:02.797Z,21.17
2022-08-16T00:35:34.878Z,21.23
2022-08-16T00:38:40.942Z,21.21
2022-08-16T00:40:54.094Z,21.17
2022-08-16T00:43:26.278Z,21.17
2022-08-16T00:46:33.699Z,21.13
2022-08-16T00:49:17.243Z,21.09
2022-08-16T00:51:45.153Z,21.00
2022-08-16T00:54:12.188Z,20.92
2022-08-16T00:56:55.957Z,20.86
2022-08-16T00:59:26.162Z,20.90
2022-08-16T01:01:53.510Z,20.86
2022-08-16T01:04:29.356Z,20.81
2022-08-16T01:07:02.279Z,20.76
2022-08-16T01:09:33.662Z,20.73
2022-08-16T01:12:08.488Z,20.69
2022-08-16T01:14:40.851Z,20.67
2022-08-16T01:17:12.459Z,20.63
2022-08-16T01:19:43.666Z,20.60
2022-08-16T01:22:49.953Z,20.52
2022-08-16T01:25:13.554Z,20.46
2022-08-16T01:27:52.107Z,20.38
2022-08-16T01:30:26.157Z,20.35
2022-08-16T01:33:02.550Z,20.33
2022-08-16T01:35:52.497Z,20.27
2022-08-16T01:38:25.935Z,20.25
2022-08-16T01:41:02.073Z,20.22
2022-08-16T01:43:31.183Z,20.21
2022-08-16T01:46:37.956Z,20.16
2022-08-16T01:48:49.582Z,20.13
2022-08-16T01:51:18.732Z,20.11
2022-08-16T01:53:55.399Z,20.08
2022-08-16T01:56:27.834Z,20.08
2022-08-16T01:59:00.985Z,20.03
2022-08-16T02:01:29.605Z,20.00
2022-08-16T02:04:10.433Z,19.95
2022-08-16T02:06:45.225Z,19.91
2022-08-16T02:09:17.741Z,19.90
2022-08-16T02:11:53.217Z,19.89
2022-08-16T02:14:27.576Z,19.79
2022-08-16T02:16:59.082Z,19.80
2022-08-16T02:19:59.431Z,19.74
2022-08-16T02:22:34.092Z,19.66
2022-08-16T02:25:14.645Z,19.61
2022-08-16T02:27:44.125Z,19.57
2022-08-16T02:30:36.846Z,19.54
2022-08-16T02:33:05.368Z,19.52
2022-08-16T02:35:33.984Z,19.49
2022-08-16T02:38:08.398Z,19.46
2022-08-16T02:40:35.967Z,19.43
2022-08-16T02:43:02.796Z,19.42
2022-08-16T02:45:32.760Z,19.33
2022-08-16T02:48:01.574Z,19.25
2022-08-16T02:50:53.623Z,19.26
2022-08-16T02:53:23.678Z,19.21
2022-08-16T02:55:51.482Z,19.22
2022-08-16T02:58:25.009Z,19.20
2022-08-16T03:00:55.962Z,19.21
2022-08-16T03:03:26.428Z,19.21
2022-08-16T03:05:53.820Z,19.20
2022-08-16T03:08:51.263Z,19.18
2022-08-16T03:11:17.888Z,19.14
2022-08-16T03:13:53.248Z,19.13
2022-08-16T03:16:37.649Z,19.10
2022-08-16T03:19:07.409Z,19.04
2022-08-16T03:21:38.178Z,19.03
2022-08-16T03:24:28.690Z,18.96
2022-08-16T03:27:02.931Z,18.93
2022-08-16T03:29:32.612Z,18.90
2022-08-16T03:32:03.431Z,18.88
2022-08-16T03:34:33.398Z,18.86
2022-08-16T03:37:00.550Z,18.77
2022-08-16T03:39:27.604Z,18.83
2022-08-16T03:41:59.580Z,18.84
2022-08-16T03:44:43.279Z,18.82
2022-08-16T03:47:18.847Z,18.84
2022-08-16T03:49:51.863Z,18.82
2022-08-16T03:52:23.932Z,18.77
2022-08-16T03:54:59.427Z,18.73
2022-08-16T03:57:31.933Z,18.73
2022-08-16T04:00:35.848Z,18.68
2022-08-16T04:03:08.692Z,18.65
2022-08-16T04:05:43.949Z,18.63
2022-08-16T04:08:22.469Z,18.69
2022-08-16T04:10:55.173Z,18.71
2022-08-16T04:14:01.402Z,18.68
2022-08-16T04:16:26.369Z,18.67
2022-08-16T04:19:02.511Z,18.64
2022-08-16T04:21:35.512Z,18.60
2022-08-16T04:24:03.915Z,18.54
2022-08-16T04:26:35.329Z,18.55
2022-08-16T04:29:16.254Z,18.54
2022-08-16T04:31:56.410Z,18.54
2022-08-16T04:34:31.017Z,18.49
2022-08-16T04:37:01.344Z,18.47
2022-08-16T04:39:36.518Z,18.45
2022-08-16T04:42:10.983Z,18.45
2022-08-16T04:44:53.867Z,18.41
2022-08-16T04:47:35.480Z,18.50
2022-08-16T04:50:09.791Z,18.50
2022-08-16T04:52:37.920Z,18.51
2022-08-16T04:55:13.672Z,18.53
2022-08-16T04:57:44.249Z,18.57
2022-08-16T05:00:32.181Z,18.63
2022-08-16T05:03:19.613Z,18.71
2022-08-16T05:05:59.598Z,18.78
2022-08-16T05:08:32.467Z,19.12
2022-08-16T05:11:09.100Z,19.50
2022-08-16T05:13:41.701Z,19.85
2022-08-16T05:16:21.790Z,20.51
2022-08-16T05:18:56.672Z,21.02
2022-08-16T05:21:38.072Z,21.54
2022-08-16T05:24:07.438Z,22.04
2022-08-16T05:26:37.547Z,22.51
2022-08-16T05:29:15.238Z,22.96
2022-08-16T05:31:54.687Z,23.40
2022-08-16T05:34:22.335Z,23.76
2022-08-16T05:36:51.535Z,24.15
2022-08-16T05:39:20.491Z,24.65
2022-08-16T05:41:47.764Z,25.04
2022-08-16T05:44:23.556Z,25.34
2022-08-16T05:46:54.968Z,25.64
2022-08-16T05:49:24.162Z,26.03
2022-08-16T05:51:56.326Z,26.12
2022-08-16T05:54:25.707Z,26.27
2022-08-16T05:56:56.792Z,26.61
2022-08-16T05:59:27.004Z,26.99
2022-08-16T06:01:55.369Z,27.24
2022-08-16T06:04:36.022Z,27.37
2022-08-16T06:07:09.130Z,27.58
2022-08-16T06:10:00.203Z,27.62
2022-08-16T06:12:35.359Z,27.81
2022-08-16T06:15:10.362Z,27.99
2022-08-16T06:17:42.876Z,28.24
2022-08-16T06:20:18.490Z,28.35
2022-08-16T06:22:58.845Z,28.72
2022-08-16T06:25:43.260Z,29.03
2022-08-16T06:28:17.278Z,29.27
2022-08-16T06:30:58.258Z,29.46
2022-08-16T06:33:24.802Z,29.65
2022-08-16T06:35:54.926Z,29.83
2022-08-16T06:38:33.650Z,29.87
2022-08-16T06:41:13.961Z,30.00
2022-08-16T06:43:42.417Z,29.95
2022-08-16T06:46:41.346Z,29.83
2022-08-16T06:49:14.425Z,29.91
2022-08-16T06:51:46.247Z,29.85
2022-08-16T06:54:17.290Z,29.82
2022-08-16T06:56:44.018Z,29.90
2022-08-16T06:59:13.952Z,29.93
2022-08-16T07:01:53.552Z,30.00
2022-08-16T07:04:33.107Z,29.99
2022-08-16T07:07:10.136Z,29.93
2022-08-16T07:09:38.568Z,29.94
2022-08-16T07:12:05.987Z,29.82
2022-08-16T07:14:35.864Z,29.92
2022-08-16T07:17:08.445Z,29.96
2022-08-16T07:20:03.693Z,30.04
2022-08-16T07:22:39.873Z,30.08
2022-08-16T07:25:22.980Z,30.13
2022-08-16T07:27:50.319Z,30.23
2022-08-16T07:30:39.112Z,30.10
2022-08-16T07:33:10.375Z,30.34
2022-08-16T07:35:44.311Z,30.28
2022-08-16T07:38:17.309Z,30.39
2022-08-16T07:41:09.659Z,30.33
2022-08-16T07:43:40.297Z,30.53
2022-08-16T07:46:38.668Z,30.56
2022-08-16T07:49:02.227Z,30.76
2022-08-16T07:51:35.549Z,30.93
2022-08-16T07:54:09.908Z,31.04
2022-08-16T07:56:39.890Z,31.07
2022-08-16T07:59:07.213Z,31.10
2022-08-16T08:01:38.266Z,31.32
2022-08-16T08:04:06.049Z,31.64
2022-08-16T08:06:37.822Z,31.85
2022-08-16T08:09:13.125Z,32.14
2022-08-16T08:11:39.789Z,32.33
2022-08-16T08:14:08.796Z,32.36
2022-08-16T08:16:55.433Z,32.50
2022-08-16T08:19:29.223Z,32.62
2022-08-16T08:21:59.087Z,32.54
2022-08-16T08:24:44.210Z,32.43
2022-08-16T08:27:11.806Z,32.49
2022-08-16T08:29:40.212Z,32.63
2022-08-16T08:32:57.945Z,32.80
2022-08-16T08:35:03.576Z,32.91
2022-08-16T08:37:54.396Z,33.10
2022-08-16T08:40:24.593Z,33.15
2022-08-16T08:43:00.926Z,33.43
2022-08-16T08:45:47.962Z,33.39
2022-08-16T08:48:33.648Z,33.48
2022-08-16T08:51:09.377Z,33.64
2022-08-16T08:54:06.961Z,33.61
2022-08-16T08:56:37.709Z,33.61
2022-08-16T08:59:24.120Z,33.66
2022-08-16T09:01:57.587Z,33.78
2022-08-16T09:04:27.106Z,33.29
2022-08-16T09:06:55.893Z,33.65
2022-08-16T09:09:25.894Z,33.71
2022-08-16T09:12:06.570Z,33.73
2022-08-16T09:14:51.331Z,33.94
2022-08-16T09:17:49.068Z,33.92
2022-08-16T09:20:14.335Z,34.11
2022-08-16T09:22:43.561Z,34.06
2022-08-16T09:25:23.049Z,33.96
2022-08-16T09:27:57.913Z,34.09
2022-08-16T09:30:42.859Z,34.26
2022-08-16T09:33:11.040Z,34.37
2022-08-16T09:35:39.052Z,34.08
2022-08-16T09:38:08.315Z,33.72
2022-08-16T09:40:41.805Z,33.75
2022-08-16T09:43:21.085Z,34.07
2022-08-16T09:45:57.970Z,34.26
2022-08-16T09:48:37.174Z,34.47
2022-08-16T09:51:12.725Z,34.67
2022-08-16T09:53:43.215Z,34.80
2022-08-16T09:56:26.476Z,34.81
2022-08-16T09:59:05.414Z,34.62
2022-08-16T10:01:36.436Z,34.55
2022-08-16T10:04:04.173Z,34.70
2022-08-16T10:06:40.833Z,34.64
2022-08-16T10:09:15.142Z,34.71
2022-08-16T10:12:11.064Z,34.83
2022-08-16T10:14:46.215Z,35.09
2022-08-16T10:17:13.353Z,35.20
2022-08-16T10:19:39.890Z,35.40
2022-08-16T10:22:06.566Z,35.40
2022-08-16T10:24:33.666Z,35.36
2022-08-16T10:27:25.534Z,35.28
2022-08-16T10:29:59.934Z,34.93
2022-08-16T10:32:30.518Z,34.62
2022-08-16T10:34:58.772Z,34.48
2022-08-16T10:37:36.047Z,34.40
2022-08-16T10:40:28.409Z,34.47
2022-08-16T10:42:54.830Z,34.54
2022-08-16T10:45:21.694Z,34.68
2022-08-16T10:47:58.849Z,34.90
2022-08-16T10:50:30.132Z,34.99
2022-08-16T10:52:59.529Z,35.24
2022-08-16T10:55:44.842Z,35.31
2022-08-16T10:58:17.001Z,35.41
2022-08-16T11:00:46.000Z,35.54
2022-08-16T11:06:03.270Z,35.81
2022-08-16T11:08:35.173Z,35.98
2022-08-16T11:11:06.990Z,35.97
2022-08-16T11:13:59.270Z,36.02
2022-08-16T11:17:02.151Z,36.09
2022-08-16T11:19:15.457Z,36.15
2022-08-16T11:24:42.490Z,35.93
2022-08-16T11:27:20.404Z,35.87
2022-08-16T11:29:50.141Z,36.01
2022-08-16T11:32:20.295Z,36.04
2022-08-16T11:35:16.292Z,35.94
2022-08-16T11:38:47.055Z,36.09
2022-08-16T11:40:52.658Z,35.99
2022-08-16T11:43:23.539Z,36.18
2022-08-16T11:45:56.807Z,36.23
2022-08-16T11:48:28.950Z,36.36
2022-08-16T11:50:57.113Z,36.45
2022-08-16T11:53:24.753Z,36.50
2022-08-16T11:55:54.859Z,36.57
2022-08-16T11:58:24.609Z,36.64
2022-08-16T12:00:53.048Z,36.63
2022-08-16T12:03:34.973Z,36.66
2022-08-16T12:06:11.096Z,36.76
2022-08-16T12:08:52.813Z,36.91
2022-08-16T12:11:19.550Z,36.98
2022-08-16T12:13:48.943Z,36.52
2022-08-16T12:16:20.525Z,36.43
2022-08-16T12:21:20.748Z,36.29
2022-08-16T12:23:49.202Z,35.95
2022-08-16T12:26:17.213Z,35.70
2022-08-16T12:28:54.444Z,35.72
2022-08-16T12:31:22.912Z,35.69
2022-08-16T12:33:54.124Z,35.17
2022-08-16T12:36:21.536Z,34.44
2022-08-16T12:38:48.909Z,34.00
2022-08-16T12:41:25.289Z,33.61
2022-08-16T12:43:57.228Z,33.25
2022-08-16T12:46:28.197Z,32.90
2022-08-16T12:49:01.135Z,32.55
2022-08-16T12:51:57.977Z,32.58
2022-08-16T12:54:26.769Z,33.07
2022-08-16T12:56:53.378Z,33.56
2022-08-16T12:59:23.531Z,33.82
2022-08-16T13:01:57.993Z,34.16
2022-08-16T13:04:25.241Z,34.06
2022-08-16T13:06:53.014Z,34.17
2022-08-16T13:09:23.702Z,34.28
2022-08-16T13:12:09.681Z,34.49
2022-08-16T13:14:41.415Z,34.15
2022-08-16T13:17:17.056Z,34.14
2022-08-16T13:20:07.733Z,34.25
2022-08-16T13:22:38.019Z,34.53
2022-08-16T13:25:08.772Z,34.57
2022-08-16T13:28:15.010Z,34.71
2022-08-16T13:30:37.366Z,34.57
2022-08-16T13:33:10.727Z,34.67
2022-08-16T13:35:44.325Z,34.02
2022-08-16T13:38:21.628Z,33.48
2022-08-16T13:40:51.318Z,33.02
2022-08-16T13:43:19.578Z,33.32
2022-08-16T13:45:46.202Z,33.29
2022-08-16T13:48:24.779Z,33.20
2022-08-16T13:50:55.078Z,33.52
2022-08-16T13:53:24.930Z,33.85
2022-08-16T13:55:58.453Z,34.02
2022-08-16T13:58:35.385Z,33.81
2022-08-16T14:01:09.760Z,33.48
2022-08-16T14:03:39.579Z,33.22
2022-08-16T14:06:10.755Z,33.10
2022-08-16T14:08:41.961Z,32.90
2022-08-16T14:11:16.011Z,32.80
2022-08-16T14:13:44.157Z,32.81
2022-08-16T14:16:23.586Z,32.97
2022-08-16T14:18:53.137Z,33.24
2022-08-16T14:21:26.831Z,33.52
2022-08-16T14:24:02.700Z,33.72
2022-08-16T14:26:34.685Z,33.82
2022-08-16T14:29:03.597Z,33.90
2022-08-16T14:31:31.833Z,33.72
2022-08-16T14:33:59.612Z,33.53
2022-08-16T14:36:29.743Z,33.45
2022-08-16T14:38:58.422Z,33.52
2022-08-16T14:41:28.064Z,33.66
2022-08-16T14:43:55.838Z,33.64
2022-08-16T14:46:22.523Z,33.40
2022-08-16T14:48:49.094Z,33.25
2022-08-16T14:51:18.669Z,32.98
2022-08-16T14:53:45.669Z,32.74
2022-08-16T14:56:38.234Z,32.72
2022-08-16T14:59:02.936Z,32.63
2022-08-16T15:01:58.041Z,32.76
2022-08-16T15:04:40.471Z,32.90
2022-08-16T15:07:03.565Z,32.95
2022-08-16T15:09:31.828Z,32.95
2022-08-16T15:12:06.291Z,32.91
2022-08-16T15:14:33.179Z,32.93
2022-08-16T15:16:59.672Z,32.94
2022-08-16T15:19:26.226Z,32.92
2022-08-16T15:21:54.398Z,32.85
2022-08-16T15:24:22.681Z,32.85
2022-08-16T15:26:49.653Z,32.89
2022-08-16T15:29:20.129Z,32.86
2022-08-16T15:31:48.140Z,32.75
2022-08-16T15:34:21.901Z,32.65
2022-08-16T15:36:52.845Z,32.58
2022-08-16T15:39:30.472Z,32.48
2022-08-16T15:42:06.590Z,32.42
2022-08-16T15:44:44.791Z,32.35
2022-08-16T15:47:22.454Z,32.23
2022-08-16T15:49:55.543Z,32.18
2022-08-16T15:52:31.504Z,32.13
2022-08-16T15:55:12.763Z,32.07
2022-08-16T15:57:41.273Z,31.97
2022-08-16T16:00:15.290Z,31.90
2022-08-16T16:02:42.371Z,31.83
2022-08-16T16:05:09.850Z,31.81
2022-08-16T16:07:37.631Z,31.75
2022-08-16T16:10:13.363Z,31.70
2022-08-16T16:12:51.037Z,31.49
2022-08-16T16:15:23.109Z,31.45
2022-08-16T16:17:52.777Z,31.44
2022-08-16T16:20:21.973Z,31.44
2022-08-16T16:22:51.587Z,31.42
2022-08-16T16:25:19.497Z,31.38
2022-08-16T16:27:55.957Z,31.33
2022-08-16T16:30:37.720Z,31.27
2022-08-16T16:33:21.043Z,31.21
2022-08-16T16:35:55.599Z,31.08
2022-08-16T16:38:26.403Z,30.96
2022-08-16T16:40:53.958Z,30.93
2022-08-16T16:43:25.934Z,30.92
2022-08-16T16:45:59.068Z,30.78
2022-08-16T16:48:29.774Z,30.75
2022-08-16T16:51:09.739Z,30.73
2022-08-16T16:53:41.283Z,30.75
2022-08-16T16:56:20.322Z,30.70
2022-08-16T16:58:57.149Z,30.63
2022-08-16T17:01:57.813Z,30.57
2022-08-16T17:04:31.622Z,30.43
2022-08-16T17:06:58.983Z,30.38
2022-08-16T17:09:25.951Z,30.28
2022-08-16T17:11:55.582Z,30.26
2022-08-16T17:14:32.668Z,30.18
2022-08-16T17:17:00.947Z,30.11
2022-08-16T17:19:31.364Z,30.10
2022-08-16T17:22:19.774Z,30.09
2022-08-16T17:24:52.511Z,30.04
2022-08-16T17:27:32.669Z,29.96
2022-08-16T17:30:16.293Z,29.89
2022-08-16T17:32:47.898Z,29.87
2022-08-16T17:35:21.559Z,29.83
2022-08-16T17:37:51.403Z,29.79
2022-08-16T17:40:40.997Z,29.75
2022-08-16T17:43:16.310Z,29.70
2022-08-16T17:45:43.397Z,29.62
2022-08-16T17:48:10.802Z,29.60
2022-08-16T17:50:37.955Z,29.53
2022-08-16T17:53:06.002Z,29.44
2022-08-16T17:55:35.841Z,29.36
2022-08-16T17:58:09.943Z,29.27
2022-08-16T18:00:54.872Z,29.17
2022-08-16T18:04:07.180Z,29.08
2022-08-16T18:06:23.173Z,28.97
2022-08-16T18:08:51.165Z,28.85
2022-08-16T18:11:25.754Z,28.80
2022-08-16T18:13:53.806Z,28.72
2022-08-16T18:16:20.654Z,28.65
2022-08-16T18:18:47.188Z,28.58
2022-08-16T18:21:33.559Z,28.51
2022-08-16T18:24:02.785Z,28.39
2022-08-16T18:26:29.606Z,28.27
2022-08-16T18:28:56.160Z,28.16
2022-08-16T18:31:22.715Z,28.06
2022-08-16T18:33:54.677Z,27.88
2022-08-16T18:36:23.530Z,27.78
2022-08-16T18:38:50.722Z,27.72
2022-08-16T18:41:18.318Z,27.66
2022-08-16T18:44:22.230Z,27.55
2022-08-16T18:46:31.325Z,27.44
2022-08-16T18:48:57.807Z,27.38
2022-08-16T18:51:25.712Z,27.31
2022-08-16T18:53:53.189Z,27.25
2022-08-16T18:56:19.894Z,27.16
2022-08-16T18:58:46.439Z,27.05
2022-08-16T19:01:13.150Z,26.96
2022-08-16T19:03:39.861Z,26.86
2022-08-16T19:06:13.898Z,26.77
2022-08-16T19:08:43.627Z,26.66
2022-08-16T19:11:14.197Z,26.60
2022-08-16T19:13:44.193Z,26.55
2022-08-16T19:16:12.445Z,26.42
2022-08-16T19:18:41.777Z,26.40
2022-08-16T19:21:11.370Z,26.32
2022-08-16T19:23:43.191Z,26.24
2022-08-16T19:26:24.527Z,26.16
2022-08-16T19:28:58.159Z,26.08
2022-08-16T19:31:32.871Z,26.04
2022-08-16T19:34:00.439Z,25.97
2022-08-16T19:36:33.846Z,25.90
2022-08-16T19:39:08.810Z,25.86
2022-08-16T19:41:38.798Z,25.82
2022-08-16T19:44:08.624Z,25.72
2022-08-16T19:46:36.036Z,25.61
2022-08-16T19:49:04.362Z,25.54
2022-08-16T19:51:30.923Z,25.49
2022-08-16T19:54:00.502Z,25.40
2022-08-16T19:56:27.176Z,25.33
2022-08-16T20:01:42.995Z,25.19
2022-08-16T20:04:12.535Z,25.16
2022-08-16T20:06:39.927Z,25.11
2022-08-16T20:09:06.905Z,25.06
2022-08-16T20:11:34.791Z,24.98
2022-08-16T20:14:01.671Z,24.91
2022-08-16T20:16:28.267Z,24.87
2022-08-16T20:18:54.766Z,24.77
2022-08-16T20:21:22.441Z,24.76
2022-08-16T20:23:49.139Z,24.71
2022-08-16T20:26:24.588Z,24.67
2022-08-16T20:28:54.528Z,24.58
2022-08-16T20:31:24.906Z,24.55
2022-08-16T20:33:52.502Z,24.53
2022-08-16T20:36:21.641Z,24.50
2022-08-16T20:38:48.506Z,24.45
2022-08-16T20:41:16.104Z,24.40
2022-08-16T20:43:43.170Z,24.36
2022-08-16T20:46:11.447Z,24.30
2022-08-16T20:48:38.111Z,24.25
2022-08-16T20:51:06.751Z,24.18
2022-08-16T20:53:33.972Z,24.11
2022-08-16T20:56:00.550Z,24.08
2022-08-16T20:58:27.131Z,24.04
2022-08-16T21:00:53.737Z,24.00
2022-08-16T21:03:20.491Z,23.94
2022-08-16T21:05:47.000Z,23.91
2022-08-16T21:08:50.569Z,23.86
2022-08-16T21:11:02.405Z,23.76
2022-08-16T21:13:32.596Z,23.69
2022-08-16T21:16:00.557Z,23.62
2022-08-16T21:18:27.126Z,23.58
2022-08-16T21:20:54.049Z,23.53
2022-08-16T21:23:20.993Z,23.49
2022-08-16T21:25:59.161Z,23.47
2022-08-16T21:28:41.653Z,23.43
2022-08-16T21:31:11.647Z,23.44
2022-08-16T21:33:38.745Z,23.38
2022-08-16T21:36:05.468Z,23.40
2022-08-16T21:38:32.358Z,23.38
2022-08-16T21:40:59.677Z,23.32
2022-08-16T21:43:28.691Z,23.25
2022-08-16T21:45:56.010Z,23.23
2022-08-16T21:48:33.498Z,23.19
2022-08-16T21:51:00.954Z,23.22
2022-08-16T21:53:28.408Z,23.23
2022-08-16T21:55:59.295Z,23.24
2022-08-16T21:58:26.126Z,23.19
2022-08-16T22:00:53.240Z,23.13
2022-08-16T22:03:21.031Z,23.08
2022-08-16T22:06:00.044Z,23.01
2022-08-16T22:08:46.701Z,22.92
2022-08-16T22:11:22.977Z,22.83
2022-08-16T22:13:57.328Z,22.75
2022-08-16T22:16:28.834Z,22.70
2022-08-16T22:18:55.434Z,22.65
2022-08-16T22:21:21.957Z,22.63
2022-08-16T22:23:55.332Z,22.58
2022-08-16T22:26:30.303Z,22.52
2022-08-16T22:28:59.304Z,22.47
2022-08-16T22:31:25.903Z,22.41
2022-08-16T22:33:52.428Z,22.41
2022-08-16T22:36:18.938Z,22.37
2022-08-16T22:38:56.254Z,22.35
2022-08-16T22:41:25.114Z,22.34
2022-08-16T22:43:52.320Z,22.30
2022-08-16T22:46:19.588Z,22.26
2022-08-16T22:48:46.963Z,22.24
2022-08-16T22:51:13.499Z,22.19
2022-08-16T22:53:40.008Z,22.15
2022-08-16T22:56:06.902Z,22.11
2022-08-16T22:58:36.163Z,22.08
2022-08-16T23:01:05.909Z,22.04
2022-08-16T23:03:32.763Z,22.00
2022-08-16T23:06:00.462Z,21.98
2022-08-16T23:08:38.505Z,21.96
2022-08-16T23:11:10.385Z,21.93
2022-08-16T23:13:37.297Z,21.90
2022-08-16T23:16:11.531Z,21.86
2022-08-16T23:18:39.856Z,21.75
2022-08-16T23:21:09.554Z,21.81
2022-08-16T23:23:37.699Z,21.76
2022-08-16T23:26:46.783Z,21.72
2022-08-16T23:28:52.248Z,21.69
2022-08-16T23:31:19.242Z,21.66
2022-08-16T23:33:45.920Z,21.63
2022-08-16T23:36:13.337Z,21.59
2022-08-16T23:38:39.976Z,21.56
2022-08-16T23:41:12.498Z,21.50
2022-08-16T23:43:44.145Z,21.42
2022-08-16T23:46:15.502Z,21.40
2022-08-16T23:50:01.990Z,21.37
2022-08-16T23:51:30.023Z,21.37
2022-08-16T23:53:56.613Z,21.44
2022-08-16T23:56:23.209Z,21.44
2022-08-16T23:58:54.350Z,21.27
